createdAt,value
2022-10-16T00:01:33.727Z,3.30
2022-10-16T00:03:37.837Z,6.03
2022-10-16T00:05:44.078Z,2.10
2022-10-16T00:07:48.798Z,2.40
2022-10-16T00:09:52.317Z,2.30
2022-10-16T00:14:06.261Z,2.95
2022-10-16T00:16:11.087Z,3.78
2022-10-16T00:18:15.584Z,3.45
2022-10-16T00:20:18.843Z,3.70
2022-10-16T00:22:22.078Z,1.10
2022-10-16T00:24:26.797Z,4.07
2022-10-16T00:26:31.827Z,3.90
2022-10-16T00:28:35.921Z,0.65
2022-10-16T00:30:40.461Z,5.10
2022-10-16T00:32:43.696Z,6.90
2022-10-16T00:34:47.494Z,4.43
2022-10-16T00:36:50.730Z,4.18
2022-10-16T00:38:55.811Z,3.42
2022-10-16T00:41:01.205Z,2.22
2022-10-16T00:43:11.549Z,2.67
2022-10-16T00:45:14.901Z,2.72
2022-10-16T00:47:23.078Z,2.97
2022-10-16T00:49:26.384Z,5.47
2022-10-16T00:51:35.232Z,0.95
2022-10-16T00:53:39.242Z,2.42
2022-10-16T00:55:42.763Z,5.35
2022-10-16T00:57:48.134Z,3.20
2022-10-16T00:59:51.437Z,1.30
2022-10-16T01:01:55.171Z,3.95
2022-10-16T01:03:58.384Z,3.13
2022-10-16T01:06:21.682Z,8.52
2022-10-16T01:08:35.229Z,2.90
2022-10-16T01:10:43.039Z,2.60
2022-10-16T01:12:54.024Z,5.03
2022-10-16T01:15:01.223Z,9.00
2022-10-16T01:17:07.949Z,4.68
2022-10-16T01:19:16.342Z,3.35
2022-10-16T01:21:26.356Z,9.75
2022-10-16T01:23:43.839Z,3.63
2022-10-16T01:26:03.281Z,1.67
2022-10-16T01:28:11.611Z,5.15
2022-10-16T01:30:19.437Z,2.63
2022-10-16T01:32:30.054Z,6.35
2022-10-16T01:34:37.965Z,3.33
2022-10-16T01:36:46.054Z,2.40
2022-10-16T01:38:51.972Z,2.63
2022-10-16T01:41:01.776Z,5.85
2022-10-16T01:43:11.146Z,6.88
2022-10-16T01:45:19.228Z,5.88
2022-10-16T01:47:27.170Z,4.88
2022-10-16T01:49:36.001Z,4.00
2022-10-16T01:51:39.827Z,3.85
2022-10-16T01:53:46.545Z,2.15
2022-10-16T01:55:51.507Z,3.72
2022-10-16T01:57:57.221Z,4.63
2022-10-16T02:00:09.735Z,1.80
2022-10-16T02:02:19.632Z,4.95
2022-10-16T02:04:26.612Z,7.47
2022-10-16T02:06:30.666Z,6.65
2022-10-16T02:08:34.491Z,3.67
2022-10-16T02:10:38.860Z,9.18
2022-10-16T02:12:46.774Z,1.75
2022-10-16T02:14:50.033Z,4.78
2022-10-16T02:16:54.688Z,4.78
2022-10-16T02:18:57.980Z,8.77
2022-10-16T02:21:04.711Z,4.07
2022-10-16T02:23:14.167Z,7.25
2022-10-16T02:25:24.293Z,5.18
2022-10-16T02:27:34.541Z,8.10
2022-10-16T02:29:45.510Z,1.70
2022-10-16T02:31:54.749Z,4.72
2022-10-16T02:34:01.273Z,3.92
2022-10-16T02:36:05.113Z,8.23
2022-10-16T02:40:14.831Z,5.80
2022-10-16T02:42:20.510Z,3.42
2022-10-16T02:44:23.951Z,3.58
2022-10-16T02:46:27.208Z,3.78
2022-10-16T02:48:30.650Z,8.68
2022-10-16T02:50:35.723Z,4.43
2022-10-16T02:52:38.927Z,3.42
2022-10-16T02:54:42.238Z,3.17
2022-10-16T02:56:45.462Z,5.35
2022-10-16T02:58:48.712Z,4.82
2022-10-16T03:00:52.054Z,5.90
2022-10-16T03:02:55.498Z,2.83
2022-10-16T03:04:58.720Z,3.75
2022-10-16T03:07:03.345Z,2.25
2022-10-16T03:09:06.535Z,1.83
2022-10-16T03:11:09.978Z,1.90
2022-10-16T03:13:13.306Z,3.28
2022-10-16T03:15:17.787Z,2.70
2022-10-16T03:17:21.043Z,1.67
2022-10-16T03:19:24.328Z,4.80
2022-10-16T03:21:27.610Z,2.72
2022-10-16T03:23:32.300Z,3.60
2022-10-16T03:25:35.529Z,6.20
2022-10-16T03:27:38.855Z,6.95
2022-10-16T03:29:42.188Z,3.53
2022-10-16T03:31:45.438Z,7.80
2022-10-16T03:33:48.738Z,5.72
2022-10-16T03:35:55.927Z,1.10
2022-10-16T03:37:59.224Z,0.75
2022-10-16T03:40:04.353Z,1.02
2022-10-16T03:42:07.904Z,5.63
2022-10-16T03:44:11.565Z,1.52
2022-10-16T03:46:15.029Z,2.53
2022-10-16T03:48:18.386Z,4.00
2022-10-16T03:50:21.630Z,4.22
2022-10-16T03:52:25.022Z,6.15
2022-10-16T03:54:28.418Z,2.33
2022-10-16T03:56:33.156Z,1.90
2022-10-16T03:58:36.364Z,2.15
2022-10-16T04:00:43.104Z,3.25
2022-10-16T04:04:54.847Z,6.32
2022-10-16T04:06:58.216Z,2.13
2022-10-16T04:09:01.590Z,5.95
2022-10-16T04:11:05.540Z,5.28
2022-10-16T04:13:10.747Z,12.90
2022-10-16T04:15:13.999Z,2.22
2022-10-16T04:17:17.317Z,2.20
2022-10-16T04:19:20.551Z,4.68
2022-10-16T04:21:23.976Z,2.53
2022-10-16T04:23:27.171Z,1.38
2022-10-16T04:25:30.567Z,5.30
2022-10-16T04:27:34.225Z,3.15
2022-10-16T04:29:38.848Z,4.03
2022-10-16T04:31:42.299Z,2.78
2022-10-16T04:33:45.511Z,2.03
2022-10-16T04:35:48.812Z,1.77
2022-10-16T04:37:52.498Z,1.85
2022-10-16T04:39:56.409Z,1.75
2022-10-16T04:41:59.671Z,5.60
2022-10-16T04:44:03.062Z,4.20
2022-10-16T04:46:07.743Z,4.97
2022-10-16T04:48:10.953Z,3.53
2022-10-16T04:50:14.163Z,6.07
2022-10-16T04:52:20.463Z,3.83
2022-10-16T04:54:23.655Z,4.05
2022-10-16T04:56:27.241Z,3.10
2022-10-16T04:58:30.535Z,5.63
2022-10-16T05:00:33.881Z,2.53
2022-10-16T05:02:38.599Z,4.57
2022-10-16T05:04:41.867Z,4.57
2022-10-16T05:06:45.131Z,5.68
2022-10-16T05:08:48.413Z,0.98
2022-10-16T05:10:51.607Z,2.40
2022-10-16T05:12:54.988Z,2.47
2022-10-16T05:14:59.900Z,5.32
2022-10-16T05:17:03.283Z,6.80
2022-10-16T05:19:27.164Z,3.03
2022-10-16T05:21:31.173Z,3.58
2022-10-16T05:23:34.687Z,2.22
2022-10-16T05:25:38.503Z,2.38
2022-10-16T05:27:41.766Z,8.70
2022-10-16T05:29:45.211Z,5.97
2022-10-16T05:31:48.489Z,3.38
2022-10-16T05:33:51.753Z,8.25
2022-10-16T05:35:56.473Z,3.22
2022-10-16T05:37:59.697Z,1.23
2022-10-16T05:40:05.204Z,2.28
2022-10-16T05:42:08.884Z,8.68
2022-10-16T05:44:12.723Z,1.48
2022-10-16T05:46:16.836Z,3.40
2022-10-16T05:48:20.589Z,3.55
2022-10-16T05:50:24.468Z,5.72
2022-10-16T05:52:29.963Z,3.08
2022-10-16T05:54:33.629Z,4.40
2022-10-16T05:56:37.260Z,3.85
2022-10-16T05:58:42.342Z,6.88
2022-10-16T06:00:46.142Z,2.28
2022-10-16T06:02:49.920Z,7.32
2022-10-16T06:04:55.551Z,4.30
2022-10-16T06:07:02.673Z,5.53
2022-10-16T06:09:07.901Z,2.67
2022-10-16T06:11:13.504Z,4.85
2022-10-16T06:13:17.703Z,2.15
2022-10-16T06:15:21.633Z,3.55
2022-10-16T06:17:25.522Z,4.65
2022-10-16T06:19:29.622Z,3.50
2022-10-16T06:21:33.246Z,3.45
2022-10-16T06:23:37.090Z,4.28
2022-10-16T06:25:42.079Z,1.67
2022-10-16T06:27:45.872Z,4.97
2022-10-16T06:29:49.526Z,4.93
2022-10-16T06:31:54.163Z,5.78
2022-10-16T06:33:58.467Z,6.78
2022-10-16T06:36:05.855Z,2.97
2022-10-16T06:38:09.562Z,4.00
2022-10-16T06:40:15.578Z,7.70
2022-10-16T06:42:20.891Z,6.13
2022-10-16T06:44:24.764Z,3.58
2022-10-16T06:46:29.439Z,8.77
2022-10-16T06:48:34.052Z,2.67
2022-10-16T06:50:38.244Z,1.35
2022-10-16T06:52:42.419Z,8.63
2022-10-16T06:54:46.572Z,3.65
2022-10-16T06:56:50.521Z,2.97
2022-10-16T06:58:57.156Z,4.55
2022-10-16T07:01:00.958Z,6.95
2022-10-16T07:03:04.789Z,4.15
2022-10-16T07:05:09.668Z,6.28
2022-10-16T07:07:14.359Z,6.18
2022-10-16T07:09:18.512Z,8.82
2022-10-16T07:11:25.506Z,8.75
2022-10-16T07:13:29.837Z,4.22
2022-10-16T07:15:35.204Z,4.03
2022-10-16T07:17:39.665Z,4.20
2022-10-16T07:19:44.552Z,6.38
2022-10-16T07:21:48.819Z,2.60
2022-10-16T07:23:54.056Z,5.13
2022-10-16T07:25:58.625Z,8.25
2022-10-16T07:28:03.413Z,4.18
2022-10-16T07:30:09.224Z,7.95
2022-10-16T07:32:14.887Z,3.17
2022-10-16T07:34:20.435Z,6.75
2022-10-16T07:36:24.789Z,5.63
2022-10-16T07:38:29.673Z,10.23
2022-10-16T07:40:34.130Z,5.13
2022-10-16T07:42:38.270Z,5.32
2022-10-16T07:44:42.338Z,3.97
2022-10-16T07:46:45.731Z,5.15
2022-10-16T07:48:50.752Z,0.60
2022-10-16T07:50:54.277Z,9.65
2022-10-16T07:52:57.850Z,6.05
2022-10-16T07:55:01.552Z,10.18
2022-10-16T07:57:05.363Z,9.60
2022-10-16T07:59:08.913Z,7.00
2022-10-16T08:01:14.320Z,7.70
2022-10-16T08:03:18.157Z,5.10
2022-10-16T08:05:23.141Z,7.30
2022-10-16T08:07:26.974Z,3.47
2022-10-16T08:09:30.787Z,5.05
2022-10-16T08:11:34.481Z,4.05
2022-10-16T08:13:38.740Z,4.32
2022-10-16T08:15:43.323Z,7.53
2022-10-16T08:17:47.289Z,7.88
2022-10-16T08:19:51.798Z,6.90
2022-10-16T08:21:57.351Z,5.65
2022-10-16T08:24:01.884Z,6.78
2022-10-16T08:26:07.416Z,7.13
2022-10-16T08:28:13.762Z,6.47
2022-10-16T08:30:18.729Z,13.93
2022-10-16T08:32:26.699Z,9.52
2022-10-16T08:34:31.967Z,5.55
2022-10-16T08:36:36.221Z,9.90
2022-10-16T08:38:41.928Z,5.68
2022-10-16T08:40:48.603Z,6.28
2022-10-16T08:43:17.191Z,5.05
2022-10-16T08:45:43.479Z,3.08
2022-10-16T08:47:56.557Z,4.88
2022-10-16T08:50:05.120Z,5.13
2022-10-16T08:52:15.876Z,4.78
2022-10-16T08:54:31.868Z,9.40
2022-10-16T08:56:36.351Z,8.50
2022-10-16T08:58:40.769Z,2.53
2022-10-16T09:00:46.511Z,2.25
2022-10-16T09:02:59.926Z,4.47
2022-10-16T09:07:23.772Z,4.90
2022-10-16T09:09:43.780Z,2.67
2022-10-16T09:11:55.793Z,4.63
2022-10-16T09:14:09.699Z,7.13
2022-10-16T09:16:22.203Z,8.55
2022-10-16T09:18:33.119Z,9.00
2022-10-16T09:20:53.967Z,5.45
2022-10-16T09:23:12.808Z,6.50
2022-10-16T09:25:20.265Z,10.18
2022-10-16T09:27:24.867Z,7.78
2022-10-16T09:29:29.536Z,3.40
2022-10-16T09:31:34.124Z,10.65
2022-10-16T09:33:42.457Z,3.65
2022-10-16T09:35:48.802Z,9.00
2022-10-16T09:37:57.301Z,3.88
2022-10-16T09:40:05.269Z,4.10
2022-10-16T09:42:16.907Z,8.25
2022-10-16T09:44:26.079Z,9.82
2022-10-16T09:46:32.386Z,3.10
2022-10-16T09:48:40.029Z,5.88
2022-10-16T09:50:44.619Z,5.00
2022-10-16T09:52:49.306Z,15.45
2022-10-16T09:54:55.690Z,5.05
2022-10-16T09:57:08.316Z,2.88
2022-10-16T09:59:17.055Z,5.80
2022-10-16T10:01:22.812Z,9.98
2022-10-16T10:03:38.698Z,9.63
2022-10-16T10:05:43.361Z,7.57
2022-10-16T10:07:48.705Z,9.70
2022-10-16T10:09:53.654Z,9.52
2022-10-16T10:11:59.785Z,6.38
2022-10-16T10:14:08.130Z,8.95
2022-10-16T10:16:14.482Z,8.00
2022-10-16T10:18:21.306Z,11.20
2022-10-16T10:20:29.997Z,5.05
2022-10-16T10:22:42.145Z,12.82
2022-10-16T10:24:47.795Z,6.57
2022-10-16T10:26:59.769Z,15.07
2022-10-16T10:29:10.198Z,12.07
2022-10-16T11:44:23.107Z,8.82
2022-10-16T11:46:29.947Z,7.68
2022-10-16T11:48:41.704Z,8.10
2022-10-16T11:50:53.069Z,5.13
2022-10-16T11:53:07.239Z,7.70
2022-10-16T11:55:19.178Z,14.60
2022-10-16T11:57:26.717Z,8.07
2022-10-16T11:59:39.817Z,9.63
2022-10-16T12:01:48.478Z,27.48
2022-10-16T12:04:06.308Z,9.82
2022-10-16T12:06:24.719Z,7.32
2022-10-16T12:08:29.958Z,6.05
2022-10-16T12:12:47.600Z,18.45
2022-10-16T12:15:16.306Z,14.18
2022-10-16T12:17:29.433Z,3.35
2022-10-16T12:19:33.299Z,11.32
2022-10-16T12:21:37.209Z,16.05
2022-10-16T12:23:50.126Z,9.98
2022-10-16T12:25:57.900Z,15.95
2022-10-16T12:28:07.322Z,10.88
2022-10-16T12:30:25.581Z,9.95
2022-10-16T12:32:49.528Z,5.90
2022-10-16T12:34:54.142Z,7.82
2022-10-16T12:37:09.926Z,5.28
2022-10-16T12:39:24.535Z,8.38
2022-10-16T12:41:30.971Z,6.55
2022-10-16T12:43:43.552Z,8.18
2022-10-16T12:45:49.467Z,6.13
2022-10-16T12:47:55.703Z,8.25
2022-10-16T12:50:04.155Z,4.25
2022-10-16T12:52:31.279Z,2.95
2022-10-16T12:54:39.942Z,10.95
2022-10-16T12:56:54.439Z,3.33
2022-10-16T12:59:14.446Z,3.85
2022-10-16T13:01:36.103Z,5.13
2022-10-16T13:04:03.348Z,4.47
2022-10-16T13:06:21.074Z,5.75
2022-10-16T13:08:39.212Z,3.35
2022-10-16T13:10:48.735Z,13.48
2022-10-16T13:13:13.277Z,4.88
2022-10-16T13:15:30.027Z,5.00
2022-10-16T13:17:42.801Z,5.55
2022-10-16T13:19:53.679Z,2.47
2022-10-16T13:22:05.453Z,3.90
2022-10-16T13:24:22.427Z,6.20
2022-10-16T13:26:38.493Z,6.30
2022-10-16T13:28:42.383Z,5.47
2022-10-16T13:30:53.633Z,4.15
2022-10-16T13:33:02.674Z,7.63
2022-10-16T13:35:23.019Z,4.82
2022-10-16T13:37:28.996Z,6.13
2022-10-16T13:39:33.381Z,8.02
2022-10-16T13:41:37.375Z,3.58
2022-10-16T13:43:44.330Z,6.55
2022-10-16T13:45:57.295Z,6.20
2022-10-16T13:48:13.380Z,5.78
2022-10-16T13:50:20.225Z,7.13
2022-10-16T13:52:24.190Z,8.45
2022-10-16T13:54:30.118Z,7.60
2022-10-16T13:56:35.341Z,9.63
2022-10-16T13:58:39.515Z,6.88
2022-10-16T14:00:55.355Z,9.02
2022-10-16T14:03:04.099Z,5.50
2022-10-16T14:05:14.537Z,6.90
2022-10-16T14:07:24.110Z,10.55
2022-10-16T14:09:30.418Z,5.95
2022-10-16T14:11:35.220Z,8.25
2022-10-16T14:13:41.962Z,6.07
2022-10-16T14:15:50.235Z,8.88
2022-10-16T14:17:55.380Z,7.00
2022-10-16T14:20:04.122Z,4.38
2022-10-16T14:22:29.041Z,7.10
2022-10-16T14:24:35.859Z,9.88
2022-10-16T14:26:49.719Z,14.55
2022-10-16T14:29:12.668Z,11.98
2022-10-16T14:31:29.509Z,9.57
2022-10-16T14:33:36.019Z,13.55
2022-10-16T14:35:41.684Z,9.57
2022-10-16T14:37:47.489Z,8.38
2022-10-16T14:39:52.608Z,15.45
2022-10-16T14:41:59.344Z,8.82
2022-10-16T14:44:06.210Z,6.00
2022-10-16T14:46:16.883Z,9.65
2022-10-16T14:48:21.960Z,6.57
2022-10-16T14:50:25.990Z,7.47
2022-10-16T14:52:29.652Z,6.63
2022-10-16T14:54:34.882Z,9.60
2022-10-16T14:56:48.318Z,10.57
2022-10-16T14:58:53.768Z,7.22
2022-10-16T15:00:58.919Z,8.27
2022-10-16T15:03:02.770Z,9.93
2022-10-16T15:05:15.093Z,9.45
2022-10-16T15:07:19.785Z,8.03
2022-10-16T15:09:23.504Z,6.03
2022-10-16T15:11:29.036Z,6.28
2022-10-16T15:13:32.713Z,7.38
2022-10-16T15:15:39.250Z,8.75
2022-10-16T15:17:42.743Z,7.78
2022-10-16T15:19:46.349Z,16.05
2022-10-16T15:21:50.511Z,8.75
2022-10-16T15:23:54.398Z,8.68
2022-10-16T15:25:58.970Z,10.05
2022-10-16T15:28:06.183Z,8.25
2022-10-16T15:30:10.703Z,8.30
2022-10-16T15:32:14.531Z,11.27
2022-10-16T15:34:20.171Z,8.38
2022-10-16T15:36:31.390Z,9.77
2022-10-16T15:38:35.506Z,6.72
2022-10-16T15:40:39.358Z,7.35
2022-10-16T15:42:43.227Z,9.77
2022-10-16T15:44:48.719Z,9.57
2022-10-16T15:46:52.429Z,10.35
2022-10-16T15:49:00.564Z,9.13
2022-10-16T15:51:07.952Z,12.52
2022-10-16T15:53:12.821Z,12.55
2022-10-16T15:55:16.943Z,17.85
2022-10-16T15:57:20.554Z,12.43
2022-10-16T15:59:24.335Z,18.30
2022-10-16T16:01:30.642Z,14.25
2022-10-16T16:03:35.265Z,12.55
2022-10-16T16:05:45.516Z,9.20
2022-10-16T16:07:50.771Z,19.92
2022-10-16T16:09:54.380Z,6.55
2022-10-16T16:12:00.519Z,8.88
2022-10-16T16:14:04.264Z,9.20
2022-10-16T16:16:09.853Z,12.60
2022-10-16T16:18:15.210Z,8.77
2022-10-16T16:20:19.221Z,8.63
2022-10-16T16:22:22.897Z,11.10
2022-10-16T16:24:26.904Z,11.85
2022-10-16T16:26:36.355Z,16.10
2022-10-16T16:28:40.876Z,13.85
2022-10-16T16:30:44.817Z,18.85
2022-10-16T16:32:48.836Z,13.57
2022-10-16T16:34:53.919Z,20.13
2022-10-16T16:36:58.311Z,19.17
2022-10-16T16:39:02.641Z,15.80
2022-10-16T16:41:14.757Z,15.93
2022-10-16T16:43:18.955Z,16.00
2022-10-16T16:45:23.765Z,20.13
2022-10-16T16:47:27.734Z,13.32
2022-10-16T16:49:32.419Z,10.95
2022-10-16T16:51:39.863Z,10.05
2022-10-16T16:53:45.497Z,17.77
2022-10-16T16:55:49.437Z,10.70
2022-10-16T16:57:53.018Z,9.30
2022-10-16T16:59:56.613Z,12.52
2022-10-16T17:02:00.656Z,13.70
2022-10-16T17:04:04.489Z,16.60
2022-10-16T17:06:10.386Z,24.17
2022-10-16T17:08:15.792Z,22.50
2022-10-16T17:10:19.597Z,16.70
2022-10-16T17:12:23.472Z,11.98
2022-10-16T17:14:27.390Z,14.77
2022-10-16T17:16:33.181Z,23.27
2022-10-16T17:18:37.567Z,15.57
2022-10-16T17:20:41.724Z,19.98
2022-10-16T17:22:45.776Z,15.50
2022-10-16T17:24:53.200Z,17.85
2022-10-16T17:26:57.027Z,23.50
2022-10-16T17:29:03.117Z,22.05
2022-10-16T17:31:12.470Z,17.15
2022-10-16T17:33:16.545Z,16.85
2022-10-16T17:35:20.333Z,20.70
2022-10-16T17:37:24.270Z,20.98
2022-10-16T17:39:28.157Z,18.77
2022-10-16T17:41:34.469Z,18.45
2022-10-16T17:43:39.215Z,13.18
2022-10-16T17:45:43.115Z,23.63
2022-10-16T17:47:47.109Z,14.65
2022-10-16T17:49:51.381Z,20.60
2022-10-16T17:51:56.248Z,19.27
2022-10-16T17:54:01.955Z,20.35
2022-10-16T17:56:06.920Z,21.05
2022-10-16T17:58:12.282Z,28.17
2022-10-16T18:00:16.999Z,22.58
2022-10-16T18:02:20.821Z,30.92
2022-10-16T18:04:24.924Z,18.98
2022-10-16T18:06:29.440Z,30.90
2022-10-16T18:08:33.194Z,34.40
2022-10-16T18:10:36.934Z,25.33
2022-10-16T18:12:40.701Z,24.67
2022-10-16T18:14:46.186Z,30.00
2022-10-16T18:18:57.224Z,31.10
2022-10-16T18:21:01.729Z,111.65
2022-10-16T18:23:05.478Z,38.45
2022-10-16T18:25:10.581Z,29.15
2022-10-16T18:27:14.489Z,35.30
2022-10-16T18:29:17.992Z,29.92
2022-10-16T18:31:25.704Z,72.90
2022-10-16T18:33:31.182Z,59.35
2022-10-16T18:35:37.229Z,45.17
2022-10-16T18:37:40.754Z,31.73
2022-10-16T18:39:47.952Z,52.22
2022-10-16T18:41:55.355Z,40.40
2022-10-16T18:43:59.228Z,35.65
2022-10-16T18:46:05.184Z,58.88
2022-10-16T18:48:10.996Z,30.42
2022-10-16T18:50:15.321Z,32.45
2022-10-16T18:52:19.309Z,24.20
2022-10-16T18:54:22.872Z,23.40
2022-10-16T18:56:26.642Z,28.40
2022-10-16T18:58:30.632Z,22.80
2022-10-16T19:00:35.376Z,23.40
2022-10-16T19:02:39.114Z,37.70
2022-10-16T19:04:44.427Z,41.38
2022-10-16T19:06:50.539Z,23.95
2022-10-16T19:08:55.955Z,33.63
2022-10-16T19:11:04.891Z,29.42
2022-10-16T19:13:10.957Z,29.02
2022-10-16T19:15:15.473Z,22.13
2022-10-16T19:17:19.455Z,39.15
2022-10-16T19:19:23.987Z,24.65
2022-10-16T19:21:31.256Z,28.27
2022-10-16T19:23:35.467Z,29.83
2022-10-16T19:25:40.223Z,29.92
2022-10-16T19:27:43.915Z,32.40
2022-10-16T19:29:47.848Z,22.60
2022-10-16T19:31:51.881Z,30.10
2022-10-16T19:33:57.436Z,33.85
2022-10-16T19:36:10.219Z,29.35
2022-10-16T19:38:15.530Z,22.95
2022-10-16T19:40:19.322Z,23.65
2022-10-16T19:42:23.254Z,28.50
2022-10-16T19:44:27.548Z,27.25
2022-10-16T19:46:32.825Z,28.52
2022-10-16T19:48:37.504Z,26.58
2022-10-16T19:50:47.364Z,19.17
2022-10-16T19:52:51.121Z,20.00
2022-10-16T19:54:59.124Z,24.95
2022-10-16T19:57:03.616Z,15.73
2022-10-16T19:59:09.028Z,20.80
2022-10-16T20:01:15.667Z,16.17
2022-10-16T20:03:20.552Z,14.90
2022-10-16T20:05:25.122Z,25.17
2022-10-16T20:07:31.306Z,19.67
2022-10-16T20:09:37.905Z,24.58
2022-10-16T20:11:43.473Z,10.98
2022-10-16T20:13:47.930Z,13.90
2022-10-16T20:15:51.927Z,19.00
2022-10-16T20:17:56.742Z,8.70
2022-10-16T20:20:01.146Z,17.67
2022-10-16T20:22:05.444Z,14.52
2022-10-16T20:24:09.527Z,16.15
2022-10-16T20:26:13.561Z,21.30
2022-10-16T20:28:21.197Z,10.57
2022-10-16T20:30:25.085Z,11.50
2022-10-16T20:32:28.682Z,17.75
2022-10-16T20:34:33.016Z,10.98
2022-10-16T20:36:38.098Z,10.05
2022-10-16T20:38:42.609Z,13.50
2022-10-16T20:40:48.653Z,18.80
2022-10-16T20:42:52.667Z,22.50
2022-10-16T20:44:58.043Z,20.08
2022-10-16T20:47:02.303Z,23.63
2022-10-16T20:49:11.168Z,19.90
2022-10-16T20:51:27.178Z,14.68
2022-10-16T20:53:33.841Z,15.60
2022-10-16T20:55:39.910Z,13.32
2022-10-16T20:57:43.590Z,9.45
2022-10-16T20:59:47.148Z,13.68
2022-10-16T21:01:52.452Z,3.75
2022-10-16T21:03:57.958Z,4.53
2022-10-16T21:06:03.829Z,1.15
2022-10-16T21:08:07.338Z,4.55
2022-10-16T21:10:11.633Z,2.97
2022-10-16T21:12:15.300Z,5.05
2022-10-16T21:14:18.864Z,3.72
2022-10-16T21:16:22.947Z,4.22
2022-10-16T21:18:29.136Z,8.40
2022-10-16T21:20:32.832Z,6.07
2022-10-16T21:22:36.572Z,4.65
2022-10-16T21:24:40.290Z,8.10
2022-10-16T21:26:43.930Z,3.28
2022-10-16T21:28:48.052Z,5.80
2022-10-16T21:30:51.616Z,7.57
2022-10-16T21:32:55.402Z,3.80
2022-10-16T21:35:00.409Z,2.92
2022-10-16T21:37:04.092Z,8.52
2022-10-16T21:39:10.457Z,9.40
2022-10-16T21:41:15.988Z,9.48
2022-10-16T21:43:19.429Z,9.55
2022-10-16T21:45:23.172Z,13.02
2022-10-16T21:47:26.896Z,4.55
2022-10-16T21:49:30.708Z,8.73
2022-10-16T21:51:40.617Z,5.78
2022-10-16T21:53:44.301Z,8.55
2022-10-16T21:55:48.045Z,11.40
2022-10-16T21:57:51.588Z,11.50
2022-10-16T21:59:55.179Z,9.05
2022-10-16T22:02:00.748Z,9.65
2022-10-16T22:04:04.342Z,15.57
2022-10-16T22:06:10.275Z,13.35
2022-10-16T22:08:16.053Z,11.65
2022-10-16T22:10:19.735Z,15.50
2022-10-16T22:12:23.357Z,12.68
2022-10-16T22:14:26.905Z,15.45
2022-10-16T22:16:30.685Z,13.48
2022-10-16T22:18:34.934Z,18.98
2022-10-16T22:20:38.584Z,11.82
2022-10-16T22:22:42.174Z,15.23
2022-10-16T22:24:47.197Z,16.38
2022-10-16T22:26:51.413Z,18.17
2022-10-16T22:28:56.938Z,14.93
2022-10-16T22:31:03.421Z,13.23
2022-10-16T22:33:07.626Z,11.32
2022-10-16T22:35:12.010Z,18.00
2022-10-16T22:37:15.818Z,16.17
2022-10-16T22:39:19.682Z,18.38
2022-10-16T22:41:25.413Z,18.52
2022-10-16T22:43:28.881Z,14.27
2022-10-16T22:45:32.863Z,21.70
2022-10-16T22:47:36.319Z,14.88
2022-10-16T22:49:39.955Z,15.50
2022-10-16T22:51:43.622Z,14.70
2022-10-16T22:53:50.133Z,11.27
2022-10-16T22:55:53.873Z,14.88
2022-10-16T22:57:59.328Z,18.20
2022-10-16T23:00:03.048Z,16.40
2022-10-16T23:02:06.733Z,12.35
2022-10-16T23:04:10.649Z,16.27
2022-10-16T23:06:14.620Z,15.00
2022-10-16T23:08:18.296Z,14.23
2022-10-16T23:10:25.149Z,19.90
2022-10-16T23:12:28.997Z,16.65
2022-10-16T23:14:34.477Z,9.95
2022-10-16T23:16:38.183Z,16.77
2022-10-16T23:18:42.094Z,16.00
2022-10-16T23:20:45.842Z,13.93
2022-10-16T23:22:49.552Z,13.07
2022-10-16T23:24:53.280Z,16.58
2022-10-16T23:26:57.004Z,14.38
2022-10-16T23:29:00.770Z,19.70
2022-10-16T23:31:07.079Z,18.70
2022-10-16T23:33:10.801Z,16.95
2022-10-16T23:35:14.437Z,12.43
2022-10-16T23:39:21.436Z,12.85
2022-10-16T23:41:25.164Z,11.52
2022-10-16T23:43:29.266Z,16.05
2022-10-16T23:45:32.758Z,10.40
2022-10-16T23:47:37.682Z,13.13
2022-10-16T23:49:41.213Z,17.83
2022-10-16T23:51:44.922Z,14.15
2022-10-16T23:53:48.782Z,15.25
2022-10-16T23:55:52.435Z,16.58
2022-10-16T23:57:56.071Z,12.98
2022-10-16T23:59:59.699Z,19.48
